createdAt,value
2023-05-12T00:01:14.282Z,6.28
2023-05-12T00:04:16.912Z,5.87
2023-05-12T00:07:20.995Z,4.22
2023-05-12T00:10:23.663Z,6.27
2023-05-12T00:13:26.951Z,3.90
2023-05-12T00:16:29.685Z,5.43
2023-05-12T00:19:32.359Z,5.75
2023-05-12T00:22:36.271Z,7.55
2023-05-12T00:25:38.939Z,6.07
2023-05-12T00:28:41.640Z,5.90
2023-05-12T00:31:44.277Z,4.82
2023-05-12T00:34:46.878Z,6.38
2023-05-12T00:37:50.762Z,5.00
2023-05-12T00:40:53.313Z,4.77
2023-05-12T00:43:56.127Z,5.47
2023-05-12T00:46:59.070Z,5.57
2023-05-12T00:50:01.644Z,5.55
2023-05-12T00:53:05.464Z,6.77
2023-05-12T00:56:08.323Z,9.37
2023-05-12T00:59:10.933Z,6.15
2023-05-12T01:02:13.496Z,5.40
2023-05-12T01:05:16.599Z,6.80
2023-05-12T01:08:21.055Z,6.40
2023-05-12T01:11:23.557Z,6.93
2023-05-12T01:14:26.984Z,6.70
2023-05-12T01:20:35.884Z,8.98
2023-05-12T01:23:44.244Z,6.00
2023-05-12T01:26:48.159Z,6.37
2023-05-12T01:29:51.200Z,5.77
2023-05-12T01:32:54.583Z,8.13
2023-05-12T01:35:57.107Z,7.32
2023-05-12T01:38:59.702Z,7.00
2023-05-12T01:42:03.949Z,8.18
2023-05-12T01:45:07.387Z,10.80
2023-05-12T01:51:12.818Z,6.83
2023-05-12T01:54:15.359Z,8.75
2023-05-12T01:57:19.176Z,9.03
2023-05-12T02:00:22.086Z,7.97
2023-05-12T02:03:24.952Z,7.85
2023-05-12T02:06:28.443Z,8.18
2023-05-12T02:09:31.097Z,8.55
2023-05-12T02:12:35.202Z,9.93
2023-05-12T02:15:37.706Z,7.97
2023-05-12T02:18:40.549Z,10.47
2023-05-12T02:21:46.015Z,8.73
2023-05-12T02:24:48.629Z,10.63
2023-05-12T02:27:52.495Z,13.55
2023-05-12T02:30:55.095Z,7.20
2023-05-12T02:33:58.787Z,7.68
2023-05-12T02:40:04.729Z,9.37
2023-05-12T02:46:11.247Z,11.10
2023-05-12T02:49:13.853Z,7.28
2023-05-12T02:52:16.533Z,9.73
2023-05-12T02:55:19.179Z,9.85
2023-05-12T02:58:23.288Z,7.20
2023-05-12T03:01:25.857Z,8.07
2023-05-12T03:04:28.432Z,7.50
2023-05-12T03:07:31.231Z,14.97
2023-05-12T03:10:34.045Z,10.18
2023-05-12T03:13:37.998Z,7.65
2023-05-12T03:16:40.641Z,9.13
2023-05-12T03:19:43.546Z,8.55
2023-05-12T03:22:46.189Z,11.00
2023-05-12T03:25:48.747Z,12.30
2023-05-12T03:28:52.633Z,21.77
2023-05-12T03:31:55.422Z,12.57
2023-05-12T03:34:58.335Z,14.18
2023-05-12T03:38:00.868Z,8.15
2023-05-12T03:41:06.823Z,10.30
2023-05-12T03:44:11.161Z,8.70
2023-05-12T03:47:13.953Z,9.27
2023-05-12T03:50:16.889Z,10.65
2023-05-12T03:53:19.446Z,9.32
2023-05-12T03:56:22.088Z,10.10
2023-05-12T03:59:25.986Z,10.73
2023-05-12T04:02:28.669Z,13.93
2023-05-12T04:05:31.313Z,12.18
2023-05-12T04:08:33.984Z,11.07
2023-05-12T04:11:36.891Z,10.73
2023-05-12T04:14:43.093Z,11.73
2023-05-12T04:17:46.238Z,12.23
2023-05-12T04:20:48.797Z,15.18
2023-05-12T04:23:52.411Z,13.00
2023-05-12T04:26:55.020Z,12.50
2023-05-12T04:29:58.933Z,13.52
2023-05-12T04:33:01.744Z,14.40
2023-05-12T04:36:05.687Z,12.48
2023-05-12T04:39:08.175Z,11.33
2023-05-12T04:42:10.714Z,12.60
2023-05-12T04:45:14.636Z,15.33
2023-05-12T04:48:17.227Z,16.13
2023-05-12T04:51:19.807Z,15.40
2023-05-12T04:54:23.607Z,18.50
2023-05-12T04:57:26.078Z,12.73
2023-05-12T05:00:29.919Z,14.63
2023-05-12T05:03:32.560Z,14.17
2023-05-12T05:06:35.125Z,18.30
2023-05-12T05:09:37.635Z,15.20
2023-05-12T05:12:40.149Z,13.40
2023-05-12T05:15:50.549Z,14.43
2023-05-12T05:18:53.212Z,14.60
2023-05-12T05:21:55.798Z,11.95
2023-05-12T05:24:58.506Z,13.73
2023-05-12T05:28:01.139Z,13.77
2023-05-12T05:31:05.449Z,12.30
2023-05-12T05:34:08.002Z,11.77
2023-05-12T05:37:10.700Z,16.88
2023-05-12T05:40:13.266Z,17.33
2023-05-12T05:43:15.852Z,13.70
2023-05-12T05:46:19.711Z,13.35
2023-05-12T05:49:23.061Z,15.77
2023-05-12T05:52:25.995Z,12.52
2023-05-12T05:55:28.545Z,14.18
2023-05-12T05:58:31.035Z,12.63
2023-05-12T06:01:34.890Z,15.83
2023-05-12T06:04:37.466Z,10.47
2023-05-12T06:07:39.979Z,12.37
2023-05-12T06:10:42.540Z,10.27
2023-05-12T06:13:45.089Z,9.43
2023-05-12T06:16:49.006Z,10.03
2023-05-12T06:19:51.525Z,11.67
2023-05-12T06:22:54.052Z,11.53
2023-05-12T06:25:56.626Z,12.70
2023-05-12T06:28:59.093Z,10.87
2023-05-12T06:32:03.161Z,16.80
2023-05-12T06:35:06.666Z,17.70
2023-05-12T06:41:11.587Z,9.90
2023-05-12T06:44:14.062Z,10.23
2023-05-12T06:47:17.950Z,9.93
2023-05-12T06:50:20.737Z,9.33
2023-05-12T06:53:25.513Z,13.18
2023-05-12T06:56:29.275Z,10.30
2023-05-12T06:59:31.810Z,8.03
2023-05-12T07:02:35.727Z,8.55
2023-05-12T07:05:38.248Z,9.73
2023-05-12T07:08:40.880Z,11.10
2023-05-12T07:11:43.471Z,8.93
2023-05-12T07:14:45.969Z,10.05
2023-05-12T07:17:49.935Z,15.40
2023-05-12T07:20:53.376Z,8.70
2023-05-12T07:26:58.240Z,7.20
2023-05-12T07:30:00.969Z,6.80
2023-05-12T07:33:04.959Z,11.43
2023-05-12T07:36:09.115Z,7.70
2023-05-12T07:39:12.865Z,10.63
2023-05-12T07:42:15.434Z,5.87
2023-05-12T07:45:22.880Z,8.93
2023-05-12T07:48:26.846Z,6.67
2023-05-12T07:51:29.513Z,5.60
2023-05-12T07:54:32.235Z,7.03
2023-05-12T07:57:34.843Z,4.50
2023-05-12T08:00:37.322Z,5.07
2023-05-12T08:03:41.359Z,4.93
2023-05-12T08:06:44.031Z,4.10
2023-05-12T08:09:46.899Z,7.25
2023-05-12T08:12:49.357Z,3.85
2023-05-12T08:15:52.158Z,4.07
2023-05-12T08:18:56.121Z,4.07
2023-05-12T08:21:58.835Z,4.83
2023-05-12T08:25:01.848Z,3.35
2023-05-12T08:28:04.693Z,4.60
2023-05-12T08:31:07.409Z,6.13
2023-05-12T08:34:11.477Z,4.72
2023-05-12T08:37:14.440Z,3.83
2023-05-12T08:40:21.356Z,4.88
2023-05-12T08:43:26.093Z,5.40
2023-05-12T08:46:28.605Z,2.43
2023-05-12T08:49:33.528Z,6.10
2023-05-12T08:52:36.668Z,3.13
2023-05-12T08:55:40.769Z,3.60
2023-05-12T08:58:44.750Z,5.67
2023-05-12T09:01:47.563Z,3.17
2023-05-12T09:04:51.891Z,2.65
2023-05-12T09:07:55.833Z,6.63
2023-05-12T09:10:59.334Z,3.07
2023-05-12T09:14:03.929Z,6.30
2023-05-12T09:17:06.544Z,3.00
2023-05-12T09:20:23.810Z,5.43
2023-05-12T09:23:33.217Z,4.50
2023-05-12T09:26:46.776Z,5.25
2023-05-12T09:29:58.999Z,3.57
2023-05-12T09:33:09.884Z,3.08
2023-05-12T09:36:18.092Z,4.03
2023-05-12T09:39:20.582Z,4.97
2023-05-12T09:42:24.451Z,4.60
2023-05-12T09:45:27.025Z,6.50
2023-05-12T09:48:31.129Z,3.30
2023-05-12T09:51:34.928Z,3.13
2023-05-12T09:54:40.644Z,4.00
2023-05-12T09:57:44.603Z,2.70
2023-05-12T10:03:54.585Z,2.63
2023-05-12T10:06:59.364Z,3.90
2023-05-12T10:10:04.301Z,3.43
2023-05-12T10:13:06.819Z,2.67
2023-05-12T10:16:09.588Z,4.45
2023-05-12T10:19:12.456Z,2.08
2023-05-12T10:22:17.122Z,1.85
2023-05-12T10:25:19.999Z,3.23
2023-05-12T10:28:22.822Z,2.05
2023-05-12T10:31:25.901Z,3.35
2023-05-12T10:34:31.258Z,2.22
2023-05-12T10:37:35.859Z,3.70
2023-05-12T10:40:38.467Z,2.80
2023-05-12T10:43:43.052Z,2.42
2023-05-12T10:46:45.674Z,2.13
2023-05-12T10:49:48.289Z,4.78
2023-05-12T10:52:55.485Z,3.05
2023-05-12T10:55:58.144Z,5.13
2023-05-12T10:59:17.431Z,4.68
2023-05-12T11:02:22.054Z,2.07
2023-05-12T11:05:34.832Z,3.10
2023-05-12T11:08:39.974Z,2.30
2023-05-12T11:11:45.737Z,4.20
2023-05-12T11:14:48.779Z,5.17
2023-05-12T11:17:51.883Z,1.65
2023-05-12T11:20:54.508Z,1.75
2023-05-12T11:23:58.653Z,2.35
2023-05-12T11:27:01.236Z,3.10
2023-05-12T11:30:04.448Z,2.10
2023-05-12T11:33:07.072Z,2.13
2023-05-12T11:36:11.009Z,3.70
2023-05-12T11:39:22.521Z,4.07
2023-05-12T11:42:25.948Z,3.70
2023-05-12T11:45:30.491Z,4.30
2023-05-12T11:48:34.806Z,3.10
2023-05-12T11:51:37.341Z,2.17
2023-05-12T11:54:41.327Z,2.50
2023-05-12T11:57:44.284Z,2.10
2023-05-12T12:00:47.028Z,3.80
2023-05-12T12:03:50.667Z,2.47
2023-05-12T12:06:53.262Z,3.53
2023-05-12T12:09:57.092Z,3.38
2023-05-12T12:13:00.897Z,1.97
2023-05-12T12:16:03.408Z,4.27
2023-05-12T12:19:06.062Z,2.33
2023-05-12T12:22:08.605Z,3.17
2023-05-12T12:25:12.546Z,2.15
2023-05-12T12:28:15.078Z,1.87
2023-05-12T12:31:17.957Z,4.60
2023-05-12T12:34:20.601Z,3.35
2023-05-12T12:37:23.096Z,1.73
2023-05-12T12:40:27.506Z,2.55
2023-05-12T12:43:30.125Z,1.30
2023-05-12T12:46:32.748Z,0.60
2023-05-12T12:49:35.426Z,0.98
2023-05-12T12:52:38.527Z,1.77
2023-05-12T12:58:45.077Z,2.10
2023-05-12T13:01:48.315Z,0.77
2023-05-12T13:04:50.931Z,4.13
2023-05-12T13:07:53.516Z,2.05
2023-05-12T13:10:57.379Z,4.30
2023-05-12T13:14:02.171Z,2.37
2023-05-12T13:17:05.134Z,3.53
2023-05-12T13:20:09.086Z,1.90
2023-05-12T13:23:11.875Z,2.93
2023-05-12T13:26:15.894Z,2.55
2023-05-12T13:29:18.493Z,1.77
2023-05-12T13:32:21.729Z,1.98
2023-05-12T13:38:27.283Z,3.87
2023-05-12T13:41:31.129Z,2.08
2023-05-12T13:44:33.639Z,2.60
2023-05-12T13:47:36.172Z,1.98
2023-05-12T13:50:38.760Z,1.95
2023-05-12T13:53:42.991Z,8.13
2023-05-12T13:56:47.210Z,5.30
2023-05-12T13:59:50.454Z,3.50
2023-05-12T14:05:55.539Z,6.43
2023-05-12T14:08:58.000Z,3.58
2023-05-12T14:12:02.512Z,4.53
2023-05-12T14:15:21.867Z,7.00
2023-05-12T14:18:28.503Z,4.30
2023-05-12T14:21:31.162Z,5.22
2023-05-12T14:24:33.664Z,3.90
2023-05-12T14:27:37.633Z,3.55
2023-05-12T14:30:40.222Z,4.73
2023-05-12T14:33:42.837Z,3.28
2023-05-12T14:36:45.451Z,3.85
2023-05-12T14:39:48.031Z,3.60
2023-05-12T14:42:52.487Z,3.70
2023-05-12T14:45:55.330Z,2.63
2023-05-12T14:48:57.878Z,3.42
2023-05-12T14:52:00.488Z,2.78
2023-05-12T14:55:02.975Z,7.82
2023-05-12T14:58:06.941Z,3.22
2023-05-12T15:01:09.755Z,2.60
2023-05-12T15:04:12.795Z,4.43
2023-05-12T15:07:15.317Z,3.13
2023-05-12T15:10:17.971Z,3.10
2023-05-12T15:13:22.837Z,4.45
2023-05-12T15:16:28.022Z,6.80
2023-05-12T15:19:30.752Z,3.67
2023-05-12T15:22:33.243Z,6.60
2023-05-12T15:25:36.024Z,3.53
2023-05-12T15:28:39.985Z,3.03
2023-05-12T15:31:42.686Z,4.20
2023-05-12T15:34:45.368Z,3.78
2023-05-12T15:37:47.831Z,3.38
2023-05-12T15:40:51.770Z,4.05
2023-05-12T15:43:55.684Z,4.17
2023-05-12T15:46:58.402Z,2.53
2023-05-12T15:50:01.382Z,7.43
2023-05-12T15:53:04.206Z,3.15
2023-05-12T15:56:07.781Z,3.05
2023-05-12T15:59:12.472Z,3.97
2023-05-12T16:02:15.226Z,5.93
2023-05-12T16:05:18.303Z,3.83
2023-05-12T16:08:21.869Z,4.30
2023-05-12T16:11:24.416Z,3.50
2023-05-12T16:14:28.230Z,2.53
2023-05-12T16:17:30.984Z,3.07
2023-05-12T16:20:33.671Z,3.10
2023-05-12T16:23:36.192Z,3.28
2023-05-12T16:26:39.073Z,2.67
2023-05-12T16:29:45.332Z,3.60
2023-05-12T16:32:48.015Z,4.13
2023-05-12T16:35:50.631Z,3.15
2023-05-12T16:38:53.607Z,4.60
2023-05-12T16:41:56.176Z,3.40
2023-05-12T16:45:00.288Z,4.25
2023-05-12T16:48:02.896Z,4.10
2023-05-12T16:51:07.003Z,2.72
2023-05-12T16:54:09.871Z,4.40
2023-05-12T16:57:12.340Z,5.55
2023-05-12T17:00:18.222Z,6.45
2023-05-12T17:03:20.939Z,5.00
2023-05-12T17:06:23.514Z,5.05
2023-05-12T17:09:26.077Z,2.22
2023-05-12T17:12:28.584Z,1.67
2023-05-12T17:15:32.540Z,3.75
2023-05-12T17:19:13.553Z,4.63
2023-05-12T17:21:57.645Z,3.93
2023-05-12T17:25:00.318Z,5.05
2023-05-12T17:28:02.996Z,3.50
2023-05-12T17:31:07.523Z,3.47
2023-05-12T17:34:10.283Z,3.30
2023-05-12T17:37:13.174Z,4.38
2023-05-12T17:40:16.967Z,6.60
2023-05-12T17:43:19.501Z,2.17
2023-05-12T17:46:23.491Z,3.80
2023-05-12T17:49:26.121Z,2.90
2023-05-12T17:52:28.738Z,2.67
2023-05-12T17:55:31.339Z,3.70
2023-05-12T17:58:34.139Z,2.35
2023-05-12T18:01:38.149Z,3.72
2023-05-12T18:04:40.825Z,2.03
2023-05-12T18:07:43.460Z,4.90
2023-05-12T18:10:46.611Z,4.03
2023-05-12T18:13:51.009Z,5.22
2023-05-12T18:16:55.050Z,2.33
2023-05-12T18:19:57.808Z,3.50
2023-05-12T18:23:00.326Z,3.15
2023-05-12T18:26:03.244Z,2.28
2023-05-12T18:29:05.962Z,4.65
2023-05-12T18:32:10.001Z,4.15
2023-05-12T18:35:12.527Z,2.90
2023-05-12T18:38:16.095Z,3.40
2023-05-12T18:41:18.856Z,2.60
2023-05-12T18:44:21.397Z,3.58
2023-05-12T18:47:25.449Z,2.72
2023-05-12T18:50:28.130Z,2.43
2023-05-12T18:53:30.923Z,2.47
2023-05-12T18:56:33.507Z,2.42
2023-05-12T18:59:36.005Z,1.63
2023-05-12T19:02:42.233Z,3.97
2023-05-12T19:05:46.321Z,2.60
2023-05-12T19:08:49.064Z,1.87
2023-05-12T19:11:51.541Z,3.08
2023-05-12T19:14:54.196Z,1.73
2023-05-12T19:17:58.124Z,3.25
2023-05-12T19:21:00.730Z,2.57
2023-05-12T19:24:03.312Z,2.13
2023-05-12T19:27:06.292Z,2.80
2023-05-12T19:30:09.717Z,2.75
2023-05-12T19:36:18.441Z,4.90
2023-05-12T19:39:20.968Z,1.17
2023-05-12T19:42:23.590Z,2.80
2023-05-12T19:45:26.169Z,2.10
2023-05-12T19:48:30.068Z,1.17
2023-05-12T19:51:32.915Z,4.93
2023-05-12T19:54:35.726Z,1.50
2023-05-12T19:57:38.386Z,2.20
2023-05-12T20:00:41.381Z,1.73
2023-05-12T20:03:45.546Z,1.77
2023-05-12T20:06:48.082Z,2.00
2023-05-12T20:09:50.596Z,2.30
2023-05-12T20:12:53.140Z,1.63
2023-05-12T20:15:56.062Z,2.42
2023-05-12T20:19:02.503Z,2.47
2023-05-12T20:22:06.214Z,4.03
2023-05-12T20:25:14.295Z,4.07
2023-05-12T20:28:16.827Z,6.43
2023-05-12T20:31:19.968Z,1.27
2023-05-12T20:34:24.038Z,1.48
2023-05-12T20:37:27.349Z,1.47
2023-05-12T20:40:29.902Z,3.28
2023-05-12T20:43:32.425Z,3.47
2023-05-12T20:46:37.911Z,1.43
2023-05-12T20:49:42.766Z,3.80
2023-05-12T20:52:46.190Z,2.20
2023-05-12T20:58:51.301Z,1.57
2023-05-12T21:01:54.448Z,2.47
2023-05-12T21:04:58.429Z,1.73
2023-05-12T21:08:01.082Z,2.27
2023-05-12T21:11:03.592Z,1.83
2023-05-12T21:14:06.175Z,1.80
2023-05-12T21:17:09.972Z,1.80
2023-05-12T21:20:14.229Z,1.47
2023-05-12T21:23:16.788Z,1.23
2023-05-12T21:26:19.315Z,4.25
2023-05-12T21:29:21.938Z,1.87
2023-05-12T21:32:24.656Z,3.10
2023-05-12T21:35:28.873Z,1.90
2023-05-12T21:38:31.919Z,1.53
2023-05-12T21:41:34.484Z,2.88
2023-05-12T21:44:36.914Z,3.77
2023-05-12T21:47:39.578Z,2.60
2023-05-12T21:50:43.950Z,2.17
2023-05-12T21:53:46.433Z,2.07
2023-05-12T21:56:49.057Z,4.90
2023-05-12T21:59:51.959Z,2.88
2023-05-12T22:02:54.462Z,5.00
2023-05-12T22:05:58.323Z,2.35
2023-05-12T22:09:00.922Z,1.73
2023-05-12T22:12:03.543Z,1.67
2023-05-12T22:15:06.873Z,2.45
2023-05-12T22:18:09.514Z,3.03
2023-05-12T22:21:13.678Z,2.45
2023-05-12T22:24:16.154Z,3.50
2023-05-12T22:27:21.993Z,2.60
2023-05-12T22:30:24.733Z,2.47
2023-05-12T22:33:27.434Z,3.40
2023-05-12T22:36:31.298Z,2.30
2023-05-12T22:39:33.811Z,3.27
2023-05-12T22:42:36.514Z,2.73
2023-05-12T22:45:39.088Z,3.22
2023-05-12T22:48:41.941Z,4.53
2023-05-12T22:51:45.946Z,4.32
2023-05-12T22:54:48.474Z,2.33
2023-05-12T22:57:51.252Z,4.70
2023-05-12T23:00:54.110Z,2.25
2023-05-12T23:03:56.773Z,3.05
2023-05-12T23:07:00.692Z,2.28
2023-05-12T23:10:03.212Z,2.10
2023-05-12T23:13:05.749Z,3.53
2023-05-12T23:16:08.822Z,4.47
2023-05-12T23:19:11.451Z,5.25
2023-05-12T23:22:15.434Z,3.03
2023-05-12T23:25:17.953Z,1.87
2023-05-12T23:28:20.509Z,2.50
2023-05-12T23:31:23.053Z,2.35
2023-05-12T23:34:25.611Z,3.90
2023-05-12T23:37:29.459Z,3.67
2023-05-12T23:40:33.381Z,2.80
2023-05-12T23:43:36.016Z,2.97
2023-05-12T23:46:38.574Z,3.20
2023-05-12T23:49:41.230Z,2.28
2023-05-12T23:52:45.275Z,4.28
2023-05-12T23:55:47.766Z,4.07
2023-05-12T23:58:50.281Z,2.60
